Weather History for K08D - June, 2013

Change the Weather History Date:

Sunday, June 30, 2013

  Actual Average (KMOT) Record (KMOT)
Temperature  
Mean Temperature 65 °F 68 °F  
Max Temperature 75 °F 79 °F 103 °F (1921)
Min Temperature 55 °F 56 °F 39 °F (1918)
Cooling Degree Days 0 4  
Month to date cooling degree days 73  
Year to date cooling degree days 89  
Since 1 June cooling degree days 73  
Growing Degree Days 15 (Base 50)    
Moisture  
Dew Point 57 °F    
Average Humidity 74    
Maximum Humidity 100    
Minimum Humidity 44    
Precipitation  
Precipitation 0.00 in 0.11 in 1.29 in (1991)
Month to date precipitation 3.58  
Year to date precipitation 8.97  
Sea Level Pressure  
Sea Level Pressure 30.22 in    
Wind  
Wind Speed 5 mph (East)    
Max Wind Speed 12 mph    
Max Gust Speed 16 mph    
Visibility 10 miles    
Events Rain    
T = Trace of Precipitation, MM = Missing Value Source: NWS Daily Summary

Daily Weather History Graph

Daily Weather History Graph

Search for Another Location

Airport or City:

Trip Planner

Search our weather history database for the weather conditions in past years. The results will help you decide how hot, cold, wet, or windy it might be!

Date:

Astronomy

Jun. 30, 2013 Rise Set
Actual Time 5:52 AM CDT 9:54 PM CDT
Civil Twilight 5:10 AM CDT 10:35 PM CDT
Nautical Twilight 4:13 AM CDT 11:33 PM CDT
Astronomical Twilight 2:32 AM CDT 1:11 AM CDT
Moon 1:16 AM CDT (6/30) 2:50 PM CDT (6/30)
Length of Visible Light 17h 24m
Length of Day
16h 01m
Last Quarter, 45% of the Moon is Illuminated
Jun 30
Last Quarter
Jul 8
New
Jul 15
First Quarter
Jul 22
Full
Jul 29
Last Quarter

Hourly Weather History & Observations

Time (CDT) Temp. Dew Point Humidity Pressure Visibility Wind Dir Wind Speed Gust Speed Precip Events Conditions
12:15 AM 59.0 °F 59.0 °F 100% 30.18 in 10.0 mi Calm Calm - N/A   Partly Cloudy
12:35 AM 59.0 °F 59.0 °F 100% 30.18 in 10.0 mi North 3.5 mph - N/A   Partly Cloudy
12:55 AM 57.2 °F 57.2 °F 100% 30.18 in 10.0 mi Calm Calm - N/A   Clear
1:15 AM 57.2 °F 57.2 °F 100% 30.19 in 10.0 mi Calm Calm - N/A   Scattered Clouds
1:35 AM 59.0 °F 59.0 °F 100% 30.19 in 10.0 mi North 3.5 mph - N/A   Scattered Clouds
1:55 AM 59.0 °F 59.0 °F 100% 30.19 in 10.0 mi North 3.5 mph - N/A   Clear
2:15 AM 59.0 °F 59.0 °F 100% 30.19 in 10.0 mi NNE 3.5 mph - N/A   Partly Cloudy
2:35 AM 59.0 °F 59.0 °F 100% 30.18 in 10.0 mi NE 3.5 mph - N/A   Mostly Cloudy
2:55 AM 59.0 °F 59.0 °F 100% 30.18 in 10.0 mi NNE 4.6 mph - N/A   Mostly Cloudy
3:15 AM 59.0 °F 59.0 °F 100% 30.18 in 10.0 mi NNE 4.6 mph - N/A   Mostly Cloudy
3:35 AM 59.0 °F 59.0 °F 100% 30.19 in 10.0 mi NE 3.5 mph - N/A   Scattered Clouds
3:55 AM 59.0 °F 59.0 °F 100% 30.19 in 10.0 mi NE 3.5 mph - N/A   Clear
4:15 AM 59.0 °F 59.0 °F 100% 30.19 in 10.0 mi Calm Calm - N/A   Clear
4:35 AM 57.2 °F 57.2 °F 100% 30.19 in 10.0 mi Calm Calm - N/A   Clear
4:55 AM 57.2 °F 57.2 °F 100% 30.20 in 10.0 mi Calm Calm - N/A   Clear
5:15 AM 55.4 °F 55.4 °F 100% 30.20 in 10.0 mi Calm Calm - N/A   Partly Cloudy
5:35 AM 57.2 °F 57.2 °F 100% 30.20 in 10.0 mi Calm Calm - N/A   Overcast
5:55 AM 59.0 °F 59.0 °F 100% 30.21 in 10.0 mi Calm Calm - N/A   Mostly Cloudy
6:15 AM 57.2 °F 57.2 °F 100% 30.21 in 10.0 mi Calm Calm - N/A   Mostly Cloudy
6:35 AM 59.0 °F 59.0 °F 100% 30.22 in 10.0 mi ENE 4.6 mph - N/A   Overcast
6:55 AM 59.0 °F 59.0 °F 100% 30.22 in 10.0 mi ENE 4.6 mph - N/A   Mostly Cloudy
7:15 AM 59.0 °F 59.0 °F 100% 30.22 in 10.0 mi East 3.5 mph - N/A   Mostly Cloudy
7:35 AM 60.8 °F 60.8 °F 100% 30.22 in 10.0 mi East 4.6 mph - N/A   Scattered Clouds
7:55 AM 62.6 °F 60.8 °F 94% 30.23 in 10.0 mi ENE 6.9 mph - N/A   Clear
8:15 AM 62.6 °F 60.8 °F 94% 30.22 in 10.0 mi East 5.8 mph - N/A   Clear
8:35 AM 64.4 °F 60.8 °F 88% 30.22 in 10.0 mi SE 5.8 mph - N/A   Clear
8:55 AM 66.2 °F 62.6 °F 88% 30.22 in 10.0 mi SE 5.8 mph - N/A   Clear
9:15 AM 66.2 °F 60.8 °F 83% 30.23 in 10.0 mi ESE 5.8 mph - N/A   Clear
9:35 AM 68.0 °F 59.0 °F 73% 30.23 in 10.0 mi ESE 9.2 mph - N/A   Clear
9:55 AM 68.0 °F 59.0 °F 73% 30.24 in 10.0 mi SE 11.5 mph - N/A   Clear
10:15 AM 68.0 °F 57.2 °F 68% 30.24 in 10.0 mi SE 11.5 mph - N/A   Clear
10:35 AM 69.8 °F 57.2 °F 64% 30.24 in 10.0 mi SE 10.4 mph - N/A Rain Light Rain
10:55 AM 71.6 °F 57.2 °F 60% 30.24 in 10.0 mi SE 10.4 mph - N/A   Clear
11:15 AM 71.6 °F 57.2 °F 60% 30.24 in 10.0 mi SSE 9.2 mph - N/A   Clear
11:35 AM 71.6 °F 55.4 °F 57% 30.25 in 10.0 mi SE 10.4 mph - N/A   Clear
11:55 AM 71.6 °F 59.0 °F 64% 30.25 in 10.0 mi ESE 10.4 mph - N/A   Partly Cloudy
12:15 PM 73.4 °F 55.4 °F 53% 30.25 in 10.0 mi SE 10.4 mph - N/A   Clear
12:35 PM 73.4 °F 55.4 °F 53% 30.25 in 10.0 mi SE 5.8 mph - N/A   Partly Cloudy
12:55 PM 71.6 °F 57.2 °F 60% 30.25 in 10.0 mi ESE 11.5 mph - N/A   Mostly Cloudy
1:15 PM 73.4 °F 57.2 °F 57% 30.25 in 10.0 mi East 8.1 mph - N/A   Scattered Clouds
1:35 PM 73.4 °F 57.2 °F 57% 30.25 in 10.0 mi ESE 5.8 mph - N/A   Scattered Clouds
1:55 PM 75.2 °F 55.4 °F 50% 30.25 in 10.0 mi ESE 10.4 mph - N/A   Scattered Clouds
2:15 PM 75.2 °F 55.4 °F 50% 30.25 in 10.0 mi ESE 9.2 mph 16.1 mph N/A   Scattered Clouds
2:35 PM 75.2 °F 55.4 °F 50% 30.24 in 10.0 mi ESE 11.5 mph 16.1 mph N/A   Partly Cloudy
2:55 PM 75.2 °F 55.4 °F 50% 30.24 in 10.0 mi East 6.9 mph - N/A   Clear
3:15 PM 75.2 °F 55.4 °F 50% 30.24 in 10.0 mi SE 6.9 mph 16.1 mph N/A   Clear
3:35 PM 73.4 °F 53.6 °F 50% 30.24 in 10.0 mi SSE 5.8 mph - N/A   Clear
3:55 PM 75.2 °F 53.6 °F 47% 30.24 in 10.0 mi East 11.5 mph - N/A   Clear
4:15 PM 75.2 °F 55.4 °F 50% 30.23 in 10.0 mi ESE 11.5 mph - N/A   Scattered Clouds
4:35 PM 75.2 °F 53.6 °F 47% 30.23 in 10.0 mi East 8.1 mph 16.1 mph N/A   Partly Cloudy
4:55 PM 75.2 °F 53.6 °F 47% 30.23 in 10.0 mi ESE 6.9 mph - N/A   Partly Cloudy
5:15 PM 75.2 °F 51.8 °F 44% 30.23 in 10.0 mi SE 5.8 mph - N/A   Partly Cloudy
5:35 PM 75.2 °F 53.6 °F 47% 30.23 in 10.0 mi SE 6.9 mph - N/A   Clear
5:55 PM 75.2 °F 53.6 °F 47% 30.23 in 10.0 mi ESE 10.4 mph - N/A Rain Light Rain
6:15 PM 75.2 °F 53.6 °F 47% 30.23 in 10.0 mi SE 10.4 mph - N/A Rain Light Rain
6:35 PM 75.2 °F 51.8 °F 44% 30.23 in 10.0 mi East 9.2 mph 16.1 mph N/A Rain Light Rain
6:55 PM 73.4 °F 51.8 °F 47% 30.23 in 10.0 mi East 11.5 mph - N/A Rain Light Rain
7:15 PM 73.4 °F 51.8 °F 47% 30.23 in 10.0 mi ESE 11.5 mph - N/A   Clear
7:35 PM 73.4 °F 53.6 °F 50% 30.23 in 10.0 mi East 8.1 mph - N/A   Clear
7:55 PM 73.4 °F 53.6 °F 50% 30.23 in 10.0 mi East 8.1 mph - N/A   Clear
8:15 PM 73.4 °F 51.8 °F 47% 30.23 in 10.0 mi ESE 6.9 mph - N/A Rain Light Rain
8:35 PM 71.6 °F 51.8 °F 50% 30.23 in 9.0 mi East 6.9 mph - N/A   Clear
8:55 PM 71.6 °F 55.4 °F 57% 30.23 in 10.0 mi East 6.9 mph - N/A   Clear
9:15 PM 69.8 °F 55.4 °F 60% 30.23 in 10.0 mi East 6.9 mph - N/A   Clear
9:35 PM 68.0 °F 55.4 °F 64% 30.23 in 10.0 mi East 6.9 mph - N/A   Clear
9:55 PM 66.2 °F 57.2 °F 73% 30.24 in 10.0 mi ESE 4.6 mph - N/A   Clear
10:15 PM 64.4 °F 59.0 °F 83% 30.24 in 10.0 mi East 4.6 mph - N/A   Clear
10:35 PM 64.4 °F 57.2 °F 77% 30.25 in 10.0 mi East 3.5 mph - N/A   Clear
10:55 PM 64.4 °F 57.2 °F 77% 30.25 in 10.0 mi East 3.5 mph - N/A   Clear
11:15 PM 64.4 °F 57.2 °F 77% 30.25 in 10.0 mi East 3.5 mph - N/A   Clear
11:35 PM 62.6 °F 57.2 °F 82% 30.26 in 10.0 mi ESE 4.6 mph - N/A   Clear
11:55 PM 60.8 °F 59.0 °F 94% 30.26 in 10.0 mi Calm Calm - N/A   Clear